| time (UTC) | temp C | wind direction | speed KPH | gust KPH | rain 1hr cm | rain 24hr cm | rain mn cm | humidity % | barometer mb |
| 20260503071656 | 8 | 211 | 0.0 | 1.6 | 0.00 | 0.00 | 0.00 | 62 | 1009.5 |
| 20260503071555 | 8 | 211 | 0.0 | 1.6 | 0.00 | 0.00 | 0.00 | 62 | 1009.4 |
| 20260503071045 | 8 | 211 | 0.0 | 1.6 | 0.00 | 0.00 | 0.00 | 63 | 1009.5 |
| 20260503070556 | 8 | 225 | 0.0 | 1.6 | 0.00 | 0.00 | 0.00 | 63 | 1009.6 |
| 20260503070146 | 8 | 228 | 0.0 | 1.6 | 0.00 | 0.00 | 0.00 | 63 | 1009.5 |
| 20260503055051 | 6 | 163 | 0.0 | 0.0 | 0.00 | 0.00 | 0.00 | 71 | 1010.3 |
| 20260503054643 | 6 | 164 | 0.0 | 0.0 | 0.00 | 0.00 | 0.00 | 71 | 1010.4 |
| 20260503054542 | 6 | 163 | 0.0 | 0.0 | 0.00 | 0.00 | 0.00 | 71 | 1010.4 |
| 20260503054054 | 7 | 163 | 0.0 | 0.0 | 0.00 | 0.00 | 0.00 | 72 | 1010.4 |
| 20260503053546 | 7 | 163 | 0.0 | 0.0 | 0.00 | 0.00 | 0.00 | 73 | 1010.4 |
| 20260503053158 | 6 | 163 | 0.0 | 0.0 | 0.00 | 0.00 | 0.00 | 72 | 1010.5 |
| 20260503053056 | 7 | 163 | 0.0 | 1.6 | 0.00 | 0.00 | 0.00 | 72 | 1010.5 |
| 20260503052547 | 7 | 163 | 0.0 | 1.6 | 0.00 | 0.00 | 0.00 | 73 | 1010.6 |
| 20260503052038 | 7 | 163 | 0.0 | 1.6 | 0.00 | 0.00 | 0.00 | 72 | 1010.7 |
| 20260503051609 | 7 | 163 | 0.0 | 1.6 | 0.00 | 0.00 | 0.00 | 72 | 1010.6 |
| 20260503051039 | 7 | 163 | 0.0 | 1.6 | 0.00 | 0.00 | 0.00 | 72 | 1010.6 |
| 20260503050550 | 7 | 163 | 0.0 | 0.0 | 0.00 | 0.00 | 0.00 | 73 | 1010.6 |
| 20260503050142 | 6 | 163 | 0.0 | 0.0 | 0.00 | 0.00 | 0.00 | 74 | 1010.6 |
| 20260503050041 | 7 | 164 | 0.0 | 0.0 | 0.00 | 0.00 | 0.00 | 71 | 1010.6 |
| 20260503045551 | 7 | 163 | 0.0 | 0.0 | 0.00 | 0.00 | 0.00 | 72 | 1010.6 |
| 20260503045041 | 7 | 163 | 0.0 | 0.0 | 0.00 | 0.00 | 0.00 | 70 | 1010.7 |
| 20260503044653 | 7 | 163 | 0.0 | 0.0 | 0.00 | 0.00 | 0.00 | 69 | 1010.8 |
| 20260503044552 | 7 | 163 | 0.0 | 0.0 | 0.00 | 0.00 | 0.00 | 69 | 1010.7 |
| 20260503044042 | 7 | 163 | 0.0 | 0.0 | 0.00 | 0.00 | 0.00 | 68 | 1010.8 |
| 20260503043551 | 7 | 163 | 0.0 | 1.6 | 0.00 | 0.00 | 0.00 | 66 | 1010.8 |
| 20260503043144 | 7 | 163 | 0.0 | 1.6 | 0.00 | 0.00 | 0.00 | 67 | 1010.8 |
| 20260503043043 | 7 | 164 | 0.0 | 1.6 | 0.00 | 0.00 | 0.00 | 66 | 1010.8 |
| 20260503042614 | 8 | 163 | 0.0 | 0.0 | 0.00 | 0.00 | 0.00 | 65 | 1010.9 |
| 20260503042047 | 8 | 163 | 526.3 | 0.0 | 0.00 | 0.00 | 0.00 | 65 | 1010.9 |
| 20260503041656 | 8 | 164 | 0.0 | 0.0 | 0.00 | 0.00 | 0.00 | 64 | 1011.0 |
| 20260503041555 | 8 | 163 | 0.0 | 0.0 | 0.00 | 0.00 | 0.00 | 64 | 1011.0 |
| 20260503041042 | 8 | 163 | 0.0 | 1.6 | 0.00 | 0.00 | 0.00 | 64 | 1011.0 |
| 20260503040552 | 9 | 164 | 0.0 | 1.6 | 0.00 | 0.00 | 0.00 | 64 | 1011.0 |
| 20260503040140 | 9 | 164 | 0.0 | 1.6 | 0.00 | 0.00 | 0.00 | 61 | 1011.0 |
| 20260503040040 | 9 | 164 | 0.0 | 1.6 | 0.00 | 0.00 | 0.00 | 60 | 1011.0 |
| 20260503035548 | 9 | 163 | 0.0 | 1.6 | 0.00 | 0.00 | 0.00 | 58 | 1011.0 |
| 20260503035056 | 9 | 165 | 0.0 | 1.6 | 0.00 | 0.00 | 0.00 | 58 | 1011.1 |
| 20260503034648 | 9 | 165 | 0.0 | 1.6 | 0.00 | 0.00 | 0.00 | 58 | 1011.2 |
| 20260503034545 | 10 | 165 | 0.0 | 1.6 | 0.00 | 0.00 | 0.00 | 58 | 1011.2 |
| 20260503034114 | 10 | 165 | 0.0 | 1.6 | 0.00 | 0.00 | 0.00 | 58 | 1011.3 |
| 20260503033540 | 10 | 165 | 0.0 | 1.6 | 0.00 | 0.00 | 0.00 | 57 | 1011.4 |
| 20260503033150 | 9 | 165 | 0.0 | 1.6 | 0.00 | 0.00 | 0.00 | 57 | 1011.5 |
| 20260503033048 | 10 | 165 | 0.0 | 1.6 | 0.00 | 0.00 | 0.00 | 57 | 1011.5 |
| 20260503032555 | 10 | 165 | 0.0 | 1.6 | 0.00 | 0.00 | 0.00 | 57 | 1011.5 |
| 20260503032104 | 9 | 165 | 0.0 | 1.6 | 0.00 | 0.00 | 0.00 | 58 | 1011.6 |
| 20260503031652 | 9 | 165 | 0.0 | 0.0 | 0.00 | 0.00 | 0.00 | 59 | 1011.6 |
| 20260503031551 | 9 | 165 | 0.0 | 0.0 | 0.00 | 0.00 | 0.00 | 57 | 1011.6 |
| 20260503031042 | 9 | 165 | 0.0 | 1.6 | 0.00 | 0.00 | 0.00 | 58 | 1011.7 |
| 20260503030610 | 9 | 165 | 0.0 | 1.6 | 0.00 | 0.00 | 0.00 | 58 | 1011.8 |
| 20260503030141 | 8 | 155 | 0.0 | 0.0 | 0.00 | 0.00 | 0.00 | 58 | 1011.9 |
| 20260503030040 | 9 | 150 | 0.0 | 0.0 | 0.00 | 0.00 | 0.00 | 60 | 1012.0 |
| 20260503025549 | 9 | 150 | 0.0 | 1.6 | 0.00 | 0.00 | 0.00 | 59 | 1011.9 |
| 20260503025037 | 9 | 150 | 0.0 | 1.6 | 0.00 | 0.00 | 0.00 | 57 | 1011.9 |
| 20260503024648 | 8 | 207 | 0.0 | 1.6 | 0.00 | 0.00 | 0.00 | 59 | 1012.0 |
| 20260503024547 | 8 | 207 | 0.0 | 1.6 | 0.00 | 0.00 | 0.00 | 59 | 1012.0 |
| 20260503024115 | 8 | 207 | 0.0 | 1.6 | 0.00 | 0.00 | 0.00 | 57 | 1012.1 |
| 20260503023603 | 8 | 232 | 0.0 | 0.0 | 0.00 | 0.00 | 0.00 | 57 | 1012.0 |
| 20260503023152 | 8 | 232 | 0.0 | 0.0 | 0.00 | 0.00 | 0.00 | 56 | 1012.0 |
| 20260503023051 | 8 | 232 | 0.0 | 0.0 | 0.00 | 0.00 | 0.00 | 57 | 1012.0 |
| 20260503022539 | 8 | 232 | 0.0 | 0.0 | 0.00 | 0.00 | 0.00 | 59 | 1012.0 |
| 20260503022046 | 8 | 232 | 0.0 | 0.0 | 0.00 | 0.00 | 0.00 | 59 | 1012.2 |
| 20260503021556 | 8 | 232 | 0.0 | 0.0 | 0.00 | 0.00 | 0.00 | 58 | 1012.2 |
| 20260503021044 | 8 | 233 | 0.0 | 0.0 | 0.00 | 0.00 | 0.00 | 56 | 1012.2 |
| 20260503020552 | 9 | 233 | 0.0 | 0.0 | 0.00 | 0.00 | 0.00 | 54 | 1012.2 |
| 20260503020140 | 9 | 233 | 0.0 | 0.0 | 0.00 | 0.00 | 0.00 | 55 | 1012.2 |
| 20260503020040 | 9 | 233 | 0.0 | 0.0 | 0.00 | 0.00 | 0.00 | 55 | 1012.2 |
| 20260503015547 | 10 | 233 | 0.0 | 0.0 | 0.00 | 0.00 | 0.00 | 50 | 1012.2 |
| 20260503015037 | 10 | 233 | 0.0 | 0.0 | 0.00 | 0.00 | 0.00 | 51 | 1012.2 |
| 20260503014544 | 10 | 233 | 0.0 | 1.6 | 0.00 | 0.00 | 0.00 | 49 | 1012.3 |
| 20260503014052 | 10 | 233 | 0.0 | 1.6 | 0.00 | 0.00 | 0.00 | 49 | 1012.3 |
| 20260503013539 | 10 | 238 | 0.0 | 0.0 | 0.00 | 0.00 | 0.00 | 47 | 1012.3 |
| 20260503013109 | 10 | 238 | 0.0 | 0.0 | 0.00 | 0.00 | 0.00 | 49 | 1012.3 |
| 20260503012551 | 10 | 238 | 0.0 | 0.0 | 0.00 | 0.00 | 0.00 | 48 | 1012.3 |
| 20260503012101 | 11 | 237 | 0.0 | 0.0 | 0.00 | 0.00 | 0.00 | 51 | 1012.3 |
| 20260503011654 | 10 | 239 | 0.0 | 0.0 | 0.00 | 0.00 | 0.00 | 50 | 1012.4 |
| 20260503011552 | 11 | 239 | 0.0 | 0.0 | 0.00 | 0.00 | 0.00 | 48 | 1012.3 |
| 20260503011043 | 11 | 238 | 0.0 | 0.0 | 0.00 | 0.00 | 0.00 | 46 | 1012.3 |
| 20260503010552 | 11 | 239 | 0.0 | 1.6 | 0.00 | 0.00 | 0.00 | 43 | 1012.3 |
| 20260503010145 | 11 | 238 | 0.0 | 1.6 | 0.00 | 0.00 | 0.00 | 44 | 1012.3 |
| 20260503010044 | 11 | 237 | 0.0 | 1.6 | 0.00 | 0.00 | 0.00 | 43 | 1012.4 |
| 20260503005612 | 11 | 233 | 0.0 | 1.6 | 0.00 | 0.00 | 0.00 | 44 | 1012.4 |
| 20260503005041 | 12 | 231 | 0.0 | 1.6 | 0.00 | 0.00 | 0.00 | 43 | 1012.4 |
| 20260503004640 | 12 | 231 | 0.0 | 0.0 | 0.00 | 0.00 | 0.00 | 43 | 1012.4 |
| 20260503004537 | 12 | 230 | 0.0 | 0.0 | 0.00 | 0.00 | 0.00 | 43 | 1012.4 |
| 20260503004049 | 12 | 231 | 0.0 | 1.6 | 0.00 | 0.00 | 0.00 | 40 | 1012.4 |
| 20260503003541 | 12 | 231 | 0.0 | 1.6 | 0.00 | 0.00 | 0.00 | 39 | 1012.4 |
| 20260503003152 | 12 | 231 | 0.0 | 1.6 | 0.00 | 0.00 | 0.00 | 39 | 1012.4 |
| 20260503003051 | 13 | 231 | 0.0 | 1.6 | 0.00 | 0.00 | 0.00 | 39 | 1012.3 |
| 20260503002541 | 13 | 235 | 0.0 | 6.4 | 0.00 | 0.00 | 0.00 | 37 | 1012.4 |
| 20260503002051 | 13 | 269 | 0.0 | 8.0 | 0.00 | 0.00 | 0.00 | 36 | 1012.4 |
| 20260503001645 | 13 | 239 | 1.6 | 8.0 | 0.00 | 0.00 | 0.00 | 35 | 1012.4 |
| 20260503001543 | 13 | 250 | 3.2 | 8.0 | 0.00 | 0.00 | 0.00 | 35 | 1012.5 |
| 20260503001053 | 13 | 264 | 1.6 | 3.2 | 0.00 | 0.00 | 0.00 | 35 | 1012.5 |
| 20260503000544 | 14 | 246 | 0.0 | 8.0 | 0.00 | 0.00 | 0.00 | 34 | 1012.6 |
| 20260503000155 | 13 | 246 | 1.6 | 8.0 | 0.00 | 0.00 | 0.00 | 34 | 1012.6 |
| 20260503000055 | 14 | 280 | 3.2 | 8.0 | 0.00 | 0.00 | 0.00 | 33 | 1012.6 |
| 20260502235546 | 14 | 232 | 1.6 | 11.3 | 0.00 | 0.00 | 0.00 | 34 | 1012.6 |
| 20260502235037 | 14 | 266 | 1.6 | 8.0 | 0.00 | 0.00 | 0.00 | 34 | 1012.6 |
| 20260502234649 | 13 | 222 | 3.2 | 8.0 | 0.00 | 0.00 | 0.00 | 33 | 1012.6 |
| 20260502234548 | 14 | 250 | 1.6 | 8.0 | 0.00 | 0.00 | 0.00 | 33 | 1012.7 |
| 20260502234057 | 15 | 283 | 3.2 | 6.4 | 0.00 | 0.00 | 0.00 | 34 | 1012.6 |
| 20260502233545 | 15 | 304 | 1.6 | 9.7 | 0.00 | 0.00 | 0.00 | 33 | 1012.6 |
| 20260502233116 | 15 | 238 | 1.6 | 9.7 | 0.00 | 0.00 | 0.00 | 34 | 1012.6 |
| 20260502232545 | 14 | 318 | 3.2 | 12.9 | 0.00 | 0.00 | 0.00 | 33 | 1012.6 |
| 20260502232055 | 14 | 246 | 3.2 | 12.9 | 0.00 | 0.00 | 0.00 | 33 | 1012.6 |
| 20260502231648 | 14 | 333 | 1.6 | 12.9 | 0.00 | 0.00 | 0.00 | 34 | 1012.6 |
| 20260502231546 | 14 | 283 | 3.2 | 9.7 | 0.00 | 0.00 | 0.00 | 33 | 1012.6 |
| 20260502231036 | 15 | 280 | 1.6 | 12.9 | 0.00 | 0.00 | 0.00 | 33 | 1012.7 |
| 20260502230546 | 15 | 245 | 6.4 | 14.5 | 0.00 | 0.00 | 0.00 | 31 | 1012.8 |
| 20260502230159 | 15 | 215 | 3.2 | 19.3 | 0.00 | 0.00 | 0.00 | 32 | 1012.8 |
| 20260502230058 | 15 | 249 | 3.2 | 19.3 | 0.00 | 0.00 | 0.00 | 32 | 1012.8 |
| 20260502225549 | 15 | 315 | 4.8 | 12.9 | 0.00 | 0.00 | 0.00 | 31 | 1012.8 |
| 20260502225040 | 15 | 327 | 3.2 | 16.1 | 0.00 | 0.00 | 0.00 | 31 | 1012.9 |
| 20260502224654 | 15 | 277 | 3.2 | 16.1 | 0.00 | 0.00 | 0.00 | 32 | 1012.9 |
| 20260502224550 | 15 | 293 | 3.2 | 16.1 | 0.00 | 0.00 | 0.00 | 31 | 1012.9 |
| 20260502224041 | 15 | 235 | 6.4 | 11.3 | 0.00 | 0.00 | 0.00 | 31 | 1013.0 |
| 20260502223551 | 15 | 191 | 3.2 | 9.7 | 0.00 | 0.00 | 0.00 | 31 | 1012.9 |
| 20260502223144 | 15 | 332 | 3.2 | 14.5 | 0.00 | 0.00 | 0.00 | 32 | 1013.0 |
| 20260502223043 | 15 | 302 | 3.2 | 14.5 | 0.00 | 0.00 | 0.00 | 32 | 1013.0 |
| 20260502222553 | 15 | 253 | 4.8 | 16.1 | 0.00 | 0.00 | 0.00 | 32 | 1013.1 |
| 20260502222103 | 15 | 345 | 8.0 | 14.5 | 0.00 | 0.00 | 0.00 | 31 | 1013.1 |
| 20260502221553 | 15 | 298 | 3.2 | 14.5 | 0.00 | 0.00 | 0.00 | 32 | 1013.1 |
| 20260502221505 | 15 | 290 | 3.2 | 14.5 | 0.00 | 0.00 | 0.00 | 32 | 1013.1 |
| 20260502221042 | 15 | 332 | 4.8 | 14.5 | 0.00 | 0.00 | 0.00 | 32 | 1013.1 |
| 20260502220554 | 15 | 287 | 3.2 | 11.3 | 0.00 | 0.00 | 0.00 | 32 | 1013.1 |
| 20260502220145 | 15 | 250 | 3.2 | 12.9 | 0.00 | 0.00 | 0.00 | 33 | 1013.2 |
| 20260502220043 | 15 | 155 | 3.2 | 12.9 | 0.00 | 0.00 | 0.00 | 33 | 1013.2 |
| 20260502215614 | 15 | 231 | 3.2 | 12.9 | 0.00 | 0.00 | 0.00 | 33 | 1013.2 |
| 20260502215043 | 15 | 319 | 6.4 | 12.9 | 0.00 | 0.00 | 0.00 | 32 | 1013.3 |
| 20260502214638 | 15 | 322 | 1.6 | 12.9 | 0.00 | 0.00 | 0.00 | 33 | 1013.2 |
| 20260502214538 | 15 | 298 | 1.6 | 12.9 | 0.00 | 0.00 | 0.00 | 33 | 1013.3 |
| 20260502214104 | 15 | 271 | 6.4 | 17.7 | 0.00 | 0.00 | 0.00 | 33 | 1013.4 |
| 20260502213538 | 15 | 263 | 4.8 | 17.7 | 0.00 | 0.00 | 0.00 | 33 | 1013.4 |
| 20260502213149 | 15 | 217 | 8.0 | 17.7 | 0.00 | 0.00 | 0.00 | 32 | 1013.4 |
| 20260502213048 | 15 | 176 | 6.4 | 12.9 | 0.00 | 0.00 | 0.00 | 33 | 1013.4 |
| 20260502212537 | 15 | 243 | 3.2 | 17.7 | 0.00 | 0.00 | 0.00 | 32 | 1013.5 |
| 20260502212047 | 15 | 318 | 4.8 | 12.9 | 0.00 | 0.00 | 0.00 | 33 | 1013.6 |
| 20260502211659 | 14 | 344 | 4.8 | 11.3 | 0.00 | 0.00 | 0.00 | 32 | 1013.6 |
| 20260502211557 | 15 | 333 | 4.8 | 12.9 | 0.00 | 0.00 | 0.00 | 32 | 1013.7 |
| 20260502211047 | 15 | 318 | 3.2 | 12.9 | 0.00 | 0.00 | 0.00 | 33 | 1013.7 |
| 20260502210554 | 15 | 231 | 4.8 | 12.9 | 0.00 | 0.00 | 0.00 | 33 | 1013.8 |
| 20260502210104 | 15 | 224 | 4.8 | 12.9 | 0.00 | 0.00 | 0.00 | 32 | 1013.9 |
| 20260502205615 | 15 | 328 | 3.2 | 11.3 | 0.00 | 0.00 | 0.00 | 33 | 1013.9 |
| 20260502205043 | 15 | 138 | 3.2 | 11.3 | 0.00 | 0.00 | 0.00 | 33 | 1014.0 |
| 20260502204655 | 14 | 255 | 6.4 | 12.9 | 0.00 | 0.00 | 0.00 | 32 | 1014.1 |
| 20260502204554 | 15 | 243 | 6.4 | 16.1 | 0.00 | 0.00 | 0.00 | 34 | 1014.1 |
| 20260502204045 | 14 | 290 | 4.8 | 16.1 | 0.00 | 0.00 | 0.00 | 34 | 1014.2 |
| 20260502203555 | 14 | 9 | 6.4 | 9.7 | 0.00 | 0.00 | 0.00 | 34 | 1014.2 |
| 20260502203146 | 14 | 276 | 1.6 | 9.7 | 0.00 | 0.00 | 0.00 | 34 | 1014.3 |
| 20260502203046 | 15 | 314 | 3.2 | 9.7 | 0.00 | 0.00 | 0.00 | 34 | 1014.4 |
| 20260502202556 | 15 | 270 | 4.8 | 11.3 | 0.00 | 0.00 | 0.00 | 33 | 1014.4 |
| 20260502202046 | 15 | 253 | 4.8 | 11.3 | 0.00 | 0.00 | 0.00 | 34 | 1014.4 |
| 20260502201556 | 15 | 273 | 4.8 | 14.5 | 0.00 | 0.00 | 0.00 | 33 | 1014.4 |
| 20260502201046 | 14 | 342 | 6.4 | 14.5 | 0.00 | 0.00 | 0.00 | 33 | 1014.6 |
| 20260502200557 | 14 | 288 | 4.8 | 12.9 | 0.00 | 0.00 | 0.00 | 36 | 1014.7 |
| 20260502200107 | 13 | 321 | 6.4 | 12.9 | 0.00 | 0.00 | 0.00 | 34 | 1014.8 |
| 20260502195557 | 13 | 297 | 3.2 | 9.7 | 0.00 | 0.00 | 0.00 | 34 | 1014.9 |
| 20260502195047 | 13 | 228 | 3.2 | 14.5 | 0.00 | 0.00 | 0.00 | 33 | 1014.8 |
| 20260502194617 | 14 | 287 | 8.0 | 14.5 | 0.00 | 0.00 | 0.00 | 33 | 1015.0 |
| 20260502194508 | 13 | 187 | 6.4 | 14.5 | 0.00 | 0.00 | 0.00 | 34 | 1015.0 |
| 20260502194106 | 13 | 232 | 6.4 | 12.9 | 0.00 | 0.00 | 0.00 | 35 | 1015.1 |
| 20260502193536 | 13 | 293 | 4.8 | 12.9 | 0.00 | 0.00 | 0.00 | 35 | 1015.1 |
| 20260502193149 | 13 | 204 | 3.2 | 12.9 | 0.00 | 0.00 | 0.00 | 37 | 1015.1 |
| 20260502193048 | 13 | 337 | 6.4 | 12.9 | 0.00 | 0.00 | 0.00 | 35 | 1015.2 |
| 20260502192538 | 13 | 16 | 3.2 | 11.3 | 0.00 | 0.00 | 0.00 | 34 | 1015.3 |
| 20260502192049 | 13 | 276 | 3.2 | 11.3 | 0.00 | 0.00 | 0.00 | 34 | 1015.3 |
| 20260502191539 | 13 | 224 | 4.8 | 14.5 | 0.00 | 0.00 | 0.00 | 32 | 1015.3 |
| 20260502191049 | 14 | 15 | 3.2 | 16.1 | 0.00 | 0.00 | 0.00 | 34 | 1015.4 |
| 20260502190540 | 14 | 295 | 4.8 | 11.3 | 0.00 | 0.00 | 0.00 | 34 | 1015.4 |
| 20260502190153 | 13 | 252 | 4.8 | 11.3 | 0.00 | 0.00 | 0.00 | 32 | 1015.5 |
| 20260502190052 | 14 | 268 | 3.2 | 9.7 | 0.00 | 0.00 | 0.00 | 32 | 1015.5 |
| 20260502185543 | 13 | 29 | 3.2 | 12.9 | 0.00 | 0.00 | 0.00 | 33 | 1015.6 |
| 20260502185114 | 13 | 255 | 8.0 | 14.5 | 0.00 | 0.00 | 0.00 | 34 | 1015.6 |
| 20260502184645 | 12 | 155 | 3.2 | 9.7 | 0.00 | 0.00 | 0.00 | 36 | 1015.7 |
| 20260502184545 | 13 | 315 | 3.2 | 9.7 | 0.00 | 0.00 | 0.00 | 35 | 1015.8 |
| 20260502184053 | 13 | 139 | 4.8 | 14.5 | 0.00 | 0.00 | 0.00 | 34 | 1015.9 |
| 20260502183604 | 13 | 253 | 6.4 | 14.5 | 0.00 | 0.00 | 0.00 | 33 | 1015.9 |
| 20260502183155 | 13 | 200 | 4.8 | 11.3 | 0.00 | 0.00 | 0.00 | 32 | 1015.8 |
| 20260502183053 | 13 | 233 | 4.8 | 11.3 | 0.00 | 0.00 | 0.00 | 32 | 1015.9 |
| 20260502182542 | 13 | 65 | 4.8 | 17.7 | 0.00 | 0.00 | 0.00 | 33 | 1016.1 |
| 20260502182051 | 13 | 32 | 4.8 | 17.7 | 0.00 | 0.00 | 0.00 | 35 | 1016.1 |
| 20260502181642 | 12 | 262 | 6.4 | 19.3 | 0.00 | 0.00 | 0.00 | 34 | 1016.1 |
| 20260502181541 | 13 | 264 | 4.8 | 12.9 | 0.00 | 0.00 | 0.00 | 33 | 1016.1 |
| 20260502181112 | 12 | 190 | 6.4 | 14.5 | 0.00 | 0.00 | 0.00 | 34 | 1016.1 |
| 20260502180601 | 13 | 282 | 8.0 | 14.5 | 0.00 | 0.00 | 0.00 | 34 | 1016.2 |
| 20260502180154 | 12 | 291 | 3.2 | 12.9 | 0.00 | 0.00 | 0.00 | 34 | 1016.3 |
| 20260502170141 | 12 | 309 | 3.2 | 16.1 | 0.00 | 0.00 | 0.00 | 35 | 1017.0 |
| 20260502164037 | 11 | 236 | 1.6 | 8.0 | 0.00 | 0.00 | 0.00 | 36 | 1017.1 |
| 20260502163547 | 11 | 331 | 3.2 | 16.1 | 0.00 | 0.00 | 0.00 | 36 | 1017.1 |
| 20260502163159 | 11 | 3 | 4.8 | 16.1 | 0.00 | 0.00 | 0.00 | 35 | 1017.2 |
| 20260502163058 | 11 | 349 | 6.4 | 16.1 | 0.00 | 0.00 | 0.00 | 35 | 1017.2 |
| 20260502162543 | 11 | 214 | 4.8 | 9.7 | 0.00 | 0.00 | 0.00 | 38 | 1017.3 |
| 20260502162010 | 11 | 241 | 4.8 | 11.3 | 0.00 | 0.00 | 0.00 | 38 | 1017.4 |
| 20260502161046 | 11 | 246 | 6.4 | 11.3 | 0.00 | 0.00 | 0.00 | 38 | 1017.5 |
| 20260502160555 | 11 | 278 | 3.2 | 9.7 | 0.00 | 0.00 | 0.00 | 39 | 1017.6 |
| 20260502160145 | 11 | 201 | 3.2 | 9.7 | 0.00 | 0.00 | 0.00 | 39 | 1017.7 |
| 20260502152045 | 10 | 312 | 1.6 | 9.7 | 0.00 | 0.00 | 0.00 | 41 | 1018.0 |
| 20260502151659 | 9 | 329 | 3.2 | 9.7 | 0.00 | 0.00 | 0.00 | 42 | 1018.1 |
| 20260502151556 | 10 | 347 | 4.8 | 9.7 | 0.00 | 0.00 | 0.00 | 42 | 1018.1 |
| 20260502151046 | 10 | 216 | 1.6 | 8.0 | 0.00 | 0.00 | 0.00 | 45 | 1018.1 |
| 20260502150558 | 9 | 117 | 3.2 | 8.0 | 0.00 | 0.00 | 0.00 | 45 | 1018.1 |
| 20260502150148 | 9 | 145 | 1.6 | 6.4 | 0.00 | 0.00 | 0.00 | 45 | 1018.2 |
| 20260502130549 | 0 | 271 | 0.0 | 0.0 | 0.00 | 0.00 | 0.00 | 96 | 1019.2 |
| 20260502130202 | 0 | 271 | 0.0 | 0.0 | 0.00 | 0.00 | 0.00 | 96 | 1019.2 |
| 20260502123553 | -2 | 271 | 0.0 | 0.0 | 0.00 | 0.00 | 0.00 | 96 | 1019.3 |
| 20260502123146 | -2 | 271 | 0.0 | 0.0 | 0.00 | 0.00 | 0.00 | 96 | 1019.3 |
| 20260502123043 | -2 | 271 | 0.0 | 0.0 | 0.00 | 0.00 | 0.00 | 96 | 1019.3 |
| 20260502122555 | -2 | 271 | 0.0 | 0.0 | 0.00 | 0.00 | 0.00 | 96 | 1019.3 |
| 20260502122104 | -2 | 271 | 0.0 | 0.0 | 0.00 | 0.00 | 0.00 | 96 | 1019.4 |
| 20260502121654 | -3 | 271 | 0.0 | 0.0 | 0.00 | 0.00 | 0.00 | 96 | 1019.3 |
| 20260502121553 | -2 | 271 | 0.0 | 0.0 | 0.00 | 0.00 | 0.00 | 96 | 1019.3 |
| 20260502121043 | -3 | 271 | 0.0 | 0.0 | 0.00 | 0.00 | 0.00 | 96 | 1019.3 |
| 20260502120554 | -3 | 271 | 0.0 | 0.0 | 0.00 | 0.00 | 0.00 | 96 | 1019.3 |
| 20260502120104 | -3 | 271 | 0.0 | 0.0 | 0.00 | 0.00 | 0.00 | 96 | 1019.4 |
| 20260502115615 | -3 | 271 | 0.0 | 0.0 | 0.00 | 0.00 | 0.00 | 96 | 1019.3 |
| 20260502115043 | -3 | 271 | 0.0 | 0.0 | 0.00 | 0.00 | 0.00 | 96 | 1019.3 |
| 20260502114656 | -4 | 271 | 0.0 | 0.0 | 0.00 | 0.00 | 0.00 | 96 | 1019.3 |
| 20260502114555 | -4 | 271 | 0.0 | 0.0 | 0.00 | 0.00 | 0.00 | 96 | 1019.3 |
| 20260502113546 | -17 | 0.0 | 0.0 | 0.00 | 0.00 | 0.00 | 1019.2 | ||
| 20260502113138 | -17 | 0.0 | 0.0 | 0.00 | 0.00 | 0.00 | 1019.1 | ||
| 20260502113037 | -17 | 0.0 | 0.0 | 0.00 | 0.00 | 0.00 | 1019.1 | ||
| 20260502112110 | -17 | 0.0 | 0.0 | 0.00 | 0.00 | 0.00 | 1019.1 | ||
| 20260502111601 | -17 | 0.0 | 0.0 | 0.00 | 0.00 | 0.00 | 1019.1 | ||
| 20260502111050 | -17 | 0.0 | 0.0 | 0.00 | 0.00 | 0.00 | 1019.1 | ||
| 20260502110540 | -17 | 0.0 | 0.0 | 0.00 | 0.00 | 0.00 | 1019.1 | ||
| 20260502105648 | -17 | 0.0 | 0.0 | 0.00 | 0.00 | 0.00 | 1019.2 | ||
| 20260502105042 | -17 | 0.0 | 0.0 | 0.00 | 0.00 | 0.00 | 1019.2 | ||
| 20260502104654 | -17 | 0.0 | 0.0 | 0.00 | 0.00 | 0.00 | 1019.3 | ||
| 20260502104553 | -17 | 0.0 | 0.0 | 0.00 | 0.00 | 0.00 | 1019.2 | ||
| 20260502104043 | -17 | 0.0 | 0.0 | 0.00 | 0.00 | 0.00 | 1019.3 | ||
| 20260502102538 | -17 | 0.0 | 0.0 | 0.00 | 0.00 | 0.00 | 1019.2 | ||
| 20260502102050 | -17 | 0.0 | 0.0 | 0.00 | 0.00 | 0.00 | 1019.2 | ||
| 20260502101641 | -17 | 0.0 | 0.0 | 0.00 | 0.00 | 0.00 | 1019.2 | ||
| 20260502101540 | -17 | 0.0 | 0.0 | 0.00 | 0.00 | 0.00 | 1019.3 | ||
| 20260502100116 | -17 | 0.0 | 0.0 | 0.00 | 0.00 | 0.00 | 1019.3 | ||
| 20260502091056 | -5 | 271 | 0.0 | 0.0 | 0.00 | 0.00 | 0.00 | 95 | 1019.2 |
| 20260502090546 | -4 | 271 | 0.0 | 0.0 | 0.00 | 0.00 | 0.00 | 96 | 1019.2 |
| 20260502090115 | -4 | 271 | 0.0 | 0.0 | 0.00 | 0.00 | 0.00 | 96 | 1019.2 |